createdAt,value
2022-11-13T10:27:15.379Z,59.47
2022-11-13T10:29:47.746Z,47.08
2022-11-13T10:32:23.835Z,47.45
2022-11-13T10:35:09.761Z,41.10
2022-11-13T10:38:00.907Z,44.35
2022-11-13T10:40:35.349Z,46.80
2022-11-13T10:43:17.138Z,44.60
2022-11-13T10:45:57.815Z,48.17
2022-11-13T10:48:27.051Z,44.45
2022-11-13T10:51:02.352Z,43.20
2022-11-13T10:53:38.371Z,46.78
2022-11-13T10:56:22.817Z,47.10
2022-11-13T10:59:10.621Z,47.13
2022-11-13T11:01:37.746Z,50.53
2022-11-13T11:04:12.726Z,51.30
2022-11-13T11:09:31.215Z,49.17
2022-11-13T11:12:30.225Z,46.47
2022-11-13T11:14:57.308Z,44.92
2022-11-13T11:20:05.829Z,43.87
2022-11-13T11:22:35.258Z,50.63
2022-11-13T11:25:26.193Z,52.08
2022-11-13T11:28:01.138Z,53.67
2022-11-13T11:30:32.344Z,57.40
2022-11-13T11:33:10.182Z,42.47
2022-11-13T11:35:49.469Z,51.78
2022-11-13T11:38:22.202Z,47.40
2022-11-13T11:40:54.170Z,44.85
2022-11-13T11:43:28.818Z,43.92
2022-11-13T11:45:55.708Z,46.30
2022-11-13T11:48:26.688Z,42.22
2022-11-13T11:51:12.680Z,40.47
2022-11-13T11:53:58.893Z,42.22
2022-11-13T11:56:35.796Z,42.33
2022-11-13T11:59:15.879Z,41.78
2022-11-13T12:02:04.509Z,48.03
2022-11-13T12:04:38.788Z,46.42
2022-11-13T12:07:25.281Z,45.12
2022-11-13T12:10:23.664Z,43.83
2022-11-13T12:13:06.236Z,40.83
2022-11-13T12:15:51.504Z,43.55
2022-11-13T12:18:30.768Z,41.83
2022-11-13T12:21:18.392Z,43.10
2022-11-13T12:23:57.654Z,42.53
2022-11-13T12:26:51.721Z,40.22
2022-11-13T12:29:46.207Z,43.95
2022-11-13T12:32:20.984Z,48.45
2022-11-13T12:34:57.598Z,49.72
2022-11-13T12:37:54.955Z,42.25
2022-11-13T12:40:50.917Z,44.50
2022-11-13T12:43:29.986Z,47.25
2022-11-13T12:46:00.975Z,46.92
2022-11-13T12:48:36.707Z,41.13
2022-11-13T12:51:11.026Z,41.00
2022-11-13T12:53:48.669Z,39.67
2022-11-13T12:56:31.187Z,41.90
2022-11-13T12:59:28.511Z,32.92
2022-11-13T13:01:57.468Z,34.45
2022-11-13T13:04:55.775Z,38.20
2022-11-13T13:08:05.012Z,36.03
2022-11-13T13:10:42.036Z,32.30
2022-11-13T13:13:18.234Z,30.90
2022-11-13T13:15:56.612Z,31.70
2022-11-13T13:18:23.403Z,30.23
2022-11-13T13:23:31.849Z,30.50
2022-11-13T13:26:26.043Z,32.47
2022-11-13T13:28:55.024Z,31.00
2022-11-13T13:31:43.624Z,31.50
2022-11-13T13:34:44.850Z,30.30
2022-11-13T13:37:46.972Z,33.88
2022-11-13T13:40:38.515Z,34.58
2022-11-13T13:43:23.806Z,31.87
2022-11-13T13:46:13.402Z,34.05
2022-11-13T13:48:41.858Z,36.47
2022-11-13T13:51:24.014Z,35.65
2022-11-13T13:53:51.095Z,38.55
2022-11-13T13:56:19.021Z,33.95
2022-11-13T13:58:46.199Z,33.45
2022-11-13T14:01:19.945Z,33.42
2022-11-13T14:03:47.397Z,30.88
2022-11-13T14:06:24.825Z,33.17
2022-11-13T14:08:51.781Z,32.53
2022-11-13T14:11:30.047Z,32.10
2022-11-13T14:14:08.292Z,33.00
2022-11-13T14:16:35.211Z,30.80
2022-11-13T14:19:05.754Z,31.42
2022-11-13T14:21:32.972Z,33.72
2022-11-13T14:24:02.640Z,36.45
2022-11-13T14:26:29.765Z,32.00
2022-11-13T14:28:59.277Z,35.72
2022-11-13T14:31:32.637Z,35.90
2022-11-13T14:34:10.086Z,33.08
2022-11-13T14:36:37.786Z,36.60
2022-11-13T14:39:05.044Z,39.47
2022-11-13T14:42:01.286Z,34.03
2022-11-13T14:44:36.878Z,39.08
2022-11-13T14:47:06.421Z,40.28
2022-11-13T14:49:36.115Z,36.58
2022-11-13T14:52:03.198Z,40.83
2022-11-13T14:55:00.517Z,42.08
2022-11-13T14:57:24.810Z,43.45
2022-11-13T14:59:51.688Z,41.13
2022-11-13T15:02:20.387Z,42.62
2022-11-13T15:04:47.255Z,44.70
2022-11-13T15:07:33.974Z,43.05
2022-11-13T15:10:01.399Z,45.38
2022-11-13T15:12:28.247Z,43.17
2022-11-13T15:17:22.592Z,46.25
2022-11-13T15:19:52.447Z,45.28
2022-11-13T15:22:27.943Z,42.80
2022-11-13T15:24:55.471Z,45.12
2022-11-13T15:27:22.399Z,44.15
2022-11-13T15:29:49.305Z,42.75
2022-11-13T15:32:16.285Z,46.28
2022-11-13T15:34:43.328Z,44.30
2022-11-13T15:37:15.038Z,40.80
2022-11-13T15:39:42.007Z,47.35
2022-11-13T15:42:14.127Z,46.88
2022-11-13T15:44:41.080Z,47.80
2022-11-13T15:47:23.847Z,49.67
2022-11-13T15:50:12.325Z,55.45
2022-11-13T15:52:39.756Z,48.72
2022-11-13T15:55:17.630Z,44.58
2022-11-13T15:57:44.506Z,48.78
2022-11-13T16:00:25.099Z,47.40
2022-11-13T16:02:56.679Z,48.80
2022-11-13T16:05:25.729Z,46.88
2022-11-13T16:07:53.657Z,53.30
2022-11-13T16:10:21.917Z,49.92
2022-11-13T16:12:48.844Z,48.47
2022-11-13T16:15:16.941Z,50.63
2022-11-13T16:17:48.985Z,42.58
2022-11-13T16:20:17.267Z,40.35
2022-11-13T16:22:44.717Z,48.87
2022-11-13T16:25:17.773Z,48.13
2022-11-13T16:27:44.727Z,53.38
2022-11-13T16:30:28.511Z,56.08
2022-11-13T16:32:55.352Z,47.38
2022-11-13T16:37:48.942Z,52.62
2022-11-13T16:42:42.549Z,51.40
2022-11-13T16:45:09.558Z,51.47
2022-11-13T16:47:36.755Z,49.33
2022-11-13T16:50:03.753Z,52.62
2022-11-13T16:52:32.033Z,56.03
2022-11-13T16:55:03.574Z,52.47
2022-11-13T16:57:33.069Z,56.58
2022-11-13T17:02:26.727Z,56.05
2022-11-13T17:04:56.136Z,62.70
2022-11-13T17:07:23.073Z,58.08
2022-11-13T17:10:10.014Z,62.75
2022-11-13T17:12:36.894Z,59.40
2022-11-13T17:15:03.900Z,68.97
2022-11-13T17:17:30.759Z,68.22
2022-11-13T17:22:24.429Z,56.80
2022-11-13T17:24:51.320Z,58.65
2022-11-13T17:27:18.272Z,61.33
2022-11-13T17:29:45.126Z,61.53
2022-11-13T17:34:38.630Z,73.15
2022-11-13T17:39:32.284Z,72.37
2022-11-13T17:41:59.162Z,69.22
2022-11-13T17:46:52.646Z,68.55
2022-11-13T17:51:46.250Z,65.47
2022-11-13T17:56:41.639Z,77.45
2022-11-13T17:59:11.178Z,86.68
2022-11-13T18:01:38.068Z,82.72
2022-11-13T18:04:05.133Z,74.72
2022-11-13T18:06:31.955Z,68.90
2022-11-13T18:11:27.155Z,57.53
2022-11-13T18:13:54.145Z,55.72
2022-11-13T18:16:25.936Z,56.37
2022-11-13T18:18:55.610Z,55.85
2022-11-13T18:21:26.742Z,65.85
2022-11-13T18:24:04.925Z,86.00
2022-11-13T18:26:32.672Z,83.00
2022-11-13T18:29:01.021Z,81.43
2022-11-13T18:31:28.282Z,91.07
2022-11-13T18:33:56.362Z,105.10
2022-11-13T18:36:23.306Z,94.15
2022-11-13T18:38:50.208Z,101.35
2022-11-13T18:41:20.125Z,107.45
2022-11-13T18:43:48.638Z,111.00
2022-11-13T18:46:17.559Z,103.47
2022-11-13T18:48:45.524Z,89.07
2022-11-13T18:51:14.976Z,60.83
2022-11-13T18:53:43.773Z,62.95
2022-11-13T18:56:13.782Z,62.88
2022-11-13T18:58:42.885Z,59.58
2022-11-13T19:01:11.868Z,584.55
2022-11-13T19:03:50.836Z,362.58
2022-11-13T19:06:27.101Z,182.98
2022-11-13T19:09:01.787Z,296.83
2022-11-13T19:11:30.180Z,439.40
2022-11-13T19:13:57.216Z,773.35
2022-11-13T19:16:26.258Z,322.37
2022-11-13T19:18:55.226Z,470.38
2022-11-13T19:21:24.149Z,515.45
2022-11-13T19:23:51.299Z,636.75
2022-11-13T19:26:18.392Z,628.05
2022-11-13T19:28:49.726Z,456.23
2022-11-13T19:31:19.623Z,356.92
2022-11-13T19:33:46.721Z,331.40
2022-11-13T19:36:18.142Z,572.78
2022-11-13T19:38:45.403Z,452.00
2022-11-13T19:41:12.714Z,363.50
2022-11-13T19:43:41.003Z,478.52
2022-11-13T19:46:10.105Z,339.88
2022-11-13T19:48:38.833Z,582.88
2022-11-13T19:51:09.841Z,602.00
2022-11-13T19:53:37.264Z,583.28
2022-11-13T19:56:04.953Z,440.05
2022-11-13T19:58:32.119Z,538.47
2022-11-13T20:00:59.170Z,305.90
2022-11-13T20:03:27.513Z,327.33
2022-11-13T20:05:56.140Z,377.25
2022-11-13T20:08:26.804Z,279.85
2022-11-13T20:10:54.947Z,259.15
2022-11-13T20:13:21.823Z,267.35
2022-11-13T20:15:54.905Z,223.77
2022-11-13T20:18:21.757Z,259.58
2022-11-13T20:23:21.659Z,414.35
2022-11-13T20:28:19.362Z,468.48
2022-11-13T20:30:46.187Z,516.03
2022-11-13T20:35:39.746Z,487.83
2022-11-13T20:38:06.609Z,585.37
2022-11-13T20:43:00.179Z,564.92
2022-11-13T20:45:27.074Z,372.85
2022-11-13T20:47:53.948Z,275.62
2022-11-13T20:50:20.801Z,517.17
2022-11-13T20:55:14.295Z,359.95
2022-11-13T21:00:09.580Z,528.40
2022-11-13T21:02:36.853Z,495.40
2022-11-13T21:05:03.846Z,548.33
2022-11-13T21:07:30.784Z,550.65
2022-11-13T21:09:57.738Z,602.35
2022-11-13T21:12:24.624Z,402.67
2022-11-13T21:17:19.049Z,567.90
2022-11-13T21:22:12.547Z,367.45
2022-11-13T21:27:06.201Z,370.77
2022-11-13T21:29:33.094Z,443.87
2022-11-13T21:31:59.929Z,544.72
2022-11-13T21:34:26.973Z,321.23
2022-11-13T21:39:20.509Z,548.20
2022-11-13T21:44:14.147Z,339.45
2022-11-13T21:46:45.819Z,576.08
2022-11-13T21:49:13.620Z,445.83
2022-11-13T21:51:42.742Z,462.67
2022-11-13T21:54:09.892Z,307.58
2022-11-13T21:56:37.822Z,511.83
2022-11-13T21:59:05.715Z,288.80
2022-11-13T22:01:38.212Z,211.98
2022-11-13T22:04:06.176Z,427.02
2022-11-13T22:06:36.439Z,371.65
2022-11-13T22:09:26.706Z,357.98
2022-11-13T22:11:53.750Z,334.95
2022-11-13T22:14:20.633Z,446.00
2022-11-13T22:19:24.056Z,307.08
2022-11-13T22:21:54.192Z,303.70
2022-11-13T22:24:21.101Z,325.23
2022-11-13T22:26:50.874Z,396.05
2022-11-13T22:29:17.815Z,466.73
2022-11-13T22:31:45.132Z,544.58
2022-11-13T22:34:12.046Z,402.83
2022-11-13T22:36:38.943Z,368.77
2022-11-13T22:39:06.179Z,305.55
2022-11-13T22:41:34.643Z,494.75
2022-11-13T22:44:03.869Z,213.77
2022-11-13T22:46:31.939Z,398.15
2022-11-13T22:49:01.844Z,450.02
2022-11-13T22:51:41.288Z,456.10
2022-11-13T22:54:10.074Z,335.00
2022-11-13T22:56:38.421Z,328.80
2022-11-13T22:59:07.105Z,410.75
2022-11-13T23:01:35.279Z,248.55
2022-11-13T23:04:04.064Z,374.50
2022-11-13T23:06:33.877Z,321.77
2022-11-13T23:09:01.316Z,455.55
2022-11-13T23:11:30.590Z,302.60
2022-11-13T23:13:59.145Z,428.08
2022-11-13T23:16:27.176Z,395.88
2022-11-13T23:18:56.639Z,288.95
2022-11-13T23:21:25.380Z,255.60
2022-11-13T23:23:52.767Z,357.17
2022-11-13T23:26:19.762Z,307.62
2022-11-13T23:28:46.759Z,312.80
2022-11-13T23:31:13.774Z,406.85
2022-11-13T23:33:40.782Z,300.50
2022-11-13T23:36:09.179Z,505.15
2022-11-13T23:38:36.136Z,407.65
2022-11-13T23:41:03.205Z,349.40
2022-11-13T23:44:01.681Z,396.98
2022-11-13T23:46:17.652Z,542.87
2022-11-13T23:48:44.510Z,485.37
2022-11-13T23:53:38.015Z,257.73
2022-11-13T23:58:32.666Z,400.17
